createdAt,value
2023-01-23T00:00:58.320Z,36.54
2023-01-23T00:01:58.313Z,36.54
2023-01-23T00:02:58.299Z,36.44
2023-01-23T00:03:58.359Z,36.35
2023-01-23T00:04:58.282Z,36.54
2023-01-23T00:05:58.264Z,35.43
2023-01-23T00:06:58.256Z,36.44
2023-01-23T00:07:58.239Z,35.33
2023-01-23T00:08:58.254Z,36.04
2023-01-23T00:09:58.334Z,36.44
2023-01-23T00:10:58.225Z,35.93
2023-01-23T00:11:58.198Z,36.54
2023-01-23T00:12:58.182Z,36.66
2023-01-23T00:13:58.174Z,35.93
2023-01-23T00:14:58.160Z,36.04
2023-01-23T00:15:58.188Z,36.33
2023-01-23T00:16:58.176Z,35.93
2023-01-23T00:17:58.129Z,36.54
2023-01-23T00:18:58.116Z,36.15
2023-01-23T00:19:58.103Z,35.93
2023-01-23T00:20:58.096Z,35.95
2023-01-23T00:21:58.085Z,36.54
2023-01-23T00:22:58.077Z,36.64
2023-01-23T00:23:58.083Z,36.05
2023-01-23T00:24:58.050Z,36.44
2023-01-23T00:25:58.147Z,36.54
2023-01-23T00:26:58.023Z,36.44
2023-01-23T00:27:58.013Z,35.93
2023-01-23T00:28:58.010Z,35.53
2023-01-23T00:29:57.995Z,35.53
2023-01-23T00:30:58.108Z,35.83
2023-01-23T00:31:58.048Z,35.43
2023-01-23T00:32:57.965Z,35.43
2023-01-23T00:33:57.956Z,35.83
2023-01-23T00:34:57.965Z,35.43
2023-01-23T00:35:57.932Z,35.43
2023-01-23T00:36:57.923Z,35.55
2023-01-23T00:37:58.011Z,36.24
2023-01-23T00:38:57.890Z,36.33
2023-01-23T00:39:57.893Z,35.85
2023-01-23T00:40:57.871Z,35.33
2023-01-23T00:41:57.968Z,35.33
2023-01-23T00:42:57.841Z,35.93
2023-01-23T00:43:57.834Z,35.83
2023-01-23T00:44:57.827Z,35.93
2023-01-23T00:45:57.818Z,35.95
2023-01-23T00:46:57.809Z,35.23
2023-01-23T00:47:57.791Z,35.13
2023-01-23T00:48:57.783Z,35.55
2023-01-23T00:49:57.760Z,35.73
2023-01-23T00:50:57.789Z,35.45
2023-01-23T00:51:57.739Z,35.73
2023-01-23T00:52:57.750Z,35.43
2023-01-23T00:53:57.719Z,35.63
2023-01-23T00:54:57.734Z,35.53
2023-01-23T00:55:57.693Z,35.73
2023-01-23T00:56:57.681Z,35.43
2023-01-23T00:57:57.787Z,35.93
2023-01-23T00:58:57.665Z,35.63
2023-01-23T00:59:57.650Z,35.73
2023-01-23T01:00:57.651Z,35.73
2023-01-23T01:01:57.713Z,35.63
2023-01-23T01:02:57.673Z,35.73
2023-01-23T01:03:57.601Z,35.63
2023-01-23T01:04:57.600Z,35.63
2023-01-23T01:05:57.586Z,35.53
2023-01-23T01:06:57.577Z,35.51
2023-01-23T01:07:57.554Z,35.53
2023-01-23T01:08:57.563Z,35.53
2023-01-23T01:09:57.541Z,35.33
2023-01-23T01:10:57.558Z,35.51
2023-01-23T01:11:57.512Z,35.53
2023-01-23T01:12:57.615Z,35.31
2023-01-23T01:13:57.599Z,35.53
2023-01-23T01:14:57.480Z,35.61
2023-01-23T01:15:57.549Z,35.43
2023-01-23T01:16:57.459Z,35.61
2023-01-23T01:17:57.443Z,35.41
2023-01-23T01:18:57.447Z,35.33
2023-01-23T01:19:57.417Z,35.63
2023-01-23T01:20:57.426Z,35.61
2023-01-23T01:21:57.394Z,35.41
2023-01-23T01:22:57.417Z,35.61
2023-01-23T01:23:57.371Z,35.61
2023-01-23T01:24:57.365Z,35.82
2023-01-23T01:25:57.349Z,36.22
2023-01-23T01:26:57.338Z,35.82
2023-01-23T01:27:57.344Z,35.51
2023-01-23T01:28:57.336Z,35.61
2023-01-23T01:29:57.415Z,35.82
2023-01-23T01:30:57.410Z,35.41
2023-01-23T01:31:57.325Z,35.41
2023-01-23T01:32:57.268Z,35.82
2023-01-23T01:33:57.266Z,35.61
2023-01-23T01:34:57.252Z,35.71
2023-01-23T01:35:57.246Z,35.51
2023-01-23T01:36:57.226Z,36.22
2023-01-23T01:37:57.211Z,35.61
2023-01-23T01:38:57.199Z,36.02
2023-01-23T01:39:57.193Z,36.22
2023-01-23T01:40:57.185Z,35.82
2023-01-23T01:41:57.171Z,35.51
2023-01-23T01:42:57.176Z,35.51
2023-01-23T01:43:57.206Z,35.82
2023-01-23T01:44:57.140Z,36.02
2023-01-23T01:45:57.233Z,36.22
2023-01-23T01:46:57.194Z,35.51
2023-01-23T01:47:57.114Z,35.51
2023-01-23T01:48:57.085Z,35.41
2023-01-23T01:49:57.083Z,35.61
2023-01-23T01:50:57.121Z,35.41
2023-01-23T01:51:57.058Z,35.51
2023-01-23T01:52:57.046Z,35.41
2023-01-23T01:53:57.027Z,35.51
2023-01-23T01:54:57.021Z,35.21
2023-01-23T01:55:57.014Z,35.51
2023-01-23T01:56:56.998Z,35.71
2023-01-23T01:57:56.982Z,35.71
2023-01-23T01:58:56.993Z,35.51
2023-01-23T01:59:56.960Z,35.50
2023-01-23T02:00:57.027Z,35.11
2023-01-23T02:01:57.077Z,35.41
2023-01-23T02:02:56.925Z,35.10
2023-01-23T02:03:56.919Z,35.10
2023-01-23T02:04:56.923Z,35.31
2023-01-23T02:05:56.892Z,35.21
2023-01-23T02:06:56.879Z,35.10
2023-01-23T02:07:56.868Z,35.01
2023-01-23T02:08:56.859Z,34.89
2023-01-23T02:09:56.846Z,35.21
2023-01-23T02:10:56.844Z,35.10
2023-01-23T02:11:56.823Z,35.10
2023-01-23T02:12:56.819Z,35.39
2023-01-23T02:13:56.796Z,35.01
2023-01-23T02:14:56.789Z,35.39
2023-01-23T02:15:56.837Z,35.01
2023-01-23T02:16:56.771Z,35.60
2023-01-23T02:17:56.872Z,35.11
2023-01-23T02:18:56.749Z,34.89
2023-01-23T02:19:56.732Z,35.39
2023-01-23T02:20:56.719Z,35.11
2023-01-23T02:21:56.709Z,35.10
2023-01-23T02:22:56.727Z,34.91
2023-01-23T02:23:56.692Z,34.89
2023-01-23T02:24:56.681Z,35.01
2023-01-23T02:25:56.662Z,34.99
2023-01-23T02:26:56.652Z,34.99
2023-01-23T02:27:56.651Z,34.99
2023-01-23T02:28:56.653Z,35.10
2023-01-23T02:29:56.620Z,34.99
2023-01-23T02:30:56.641Z,35.19
2023-01-23T02:31:56.755Z,34.99
2023-01-23T02:32:56.583Z,34.99
2023-01-23T02:33:56.688Z,35.19
2023-01-23T02:34:56.577Z,35.10
2023-01-23T02:35:56.552Z,35.50
2023-01-23T02:36:56.547Z,35.10
2023-01-23T02:37:56.529Z,34.99
2023-01-23T02:38:56.519Z,35.30
2023-01-23T02:39:56.515Z,34.99
2023-01-23T02:40:56.516Z,35.19
2023-01-23T02:41:56.483Z,35.10
2023-01-23T02:42:56.487Z,35.19
2023-01-23T02:43:56.458Z,35.10
2023-01-23T02:44:56.446Z,35.10
2023-01-23T02:45:56.464Z,35.19
2023-01-23T02:46:56.429Z,34.99
2023-01-23T02:47:56.420Z,34.89
2023-01-23T02:48:56.404Z,34.99
2023-01-23T02:49:56.508Z,35.21
2023-01-23T02:50:56.394Z,35.39
2023-01-23T02:51:56.379Z,35.19
2023-01-23T02:52:56.362Z,35.50
2023-01-23T02:53:56.345Z,35.50
2023-01-23T02:54:56.335Z,35.39
2023-01-23T02:55:56.325Z,35.50
2023-01-23T02:56:56.313Z,34.89
2023-01-23T02:57:56.302Z,35.50
2023-01-23T02:58:56.321Z,35.10
2023-01-23T02:59:56.278Z,35.50
2023-01-23T03:00:56.321Z,35.30
2023-01-23T03:01:56.299Z,35.39
2023-01-23T03:02:56.241Z,35.30
2023-01-23T03:03:56.228Z,35.39
2023-01-23T03:04:56.228Z,35.50
2023-01-23T03:05:56.320Z,35.19
2023-01-23T03:06:56.205Z,35.39
2023-01-23T03:07:56.189Z,34.99
2023-01-23T03:08:56.184Z,35.50
2023-01-23T03:09:56.162Z,35.39
2023-01-23T03:10:56.178Z,35.30
2023-01-23T03:11:56.147Z,35.50
2023-01-23T03:12:56.127Z,35.10
2023-01-23T03:13:56.117Z,35.19
2023-01-23T03:14:56.107Z,35.39
2023-01-23T03:15:56.092Z,35.10
2023-01-23T03:16:56.086Z,35.30
2023-01-23T03:17:56.071Z,35.39
2023-01-23T03:18:56.057Z,35.30
2023-01-23T03:19:56.054Z,34.99
2023-01-23T03:20:56.037Z,35.10
2023-01-23T03:21:56.139Z,35.30
2023-01-23T03:22:56.018Z,35.10
2023-01-23T03:23:56.003Z,35.10
2023-01-23T03:24:55.991Z,35.39
2023-01-23T03:25:55.978Z,34.99
2023-01-23T03:26:55.969Z,35.10
2023-01-23T03:27:55.959Z,35.19
2023-01-23T03:28:55.974Z,34.99
2023-01-23T03:29:55.935Z,35.60
2023-01-23T03:30:55.938Z,35.50
2023-01-23T03:31:55.975Z,35.60
2023-01-23T03:32:55.897Z,35.60
2023-01-23T03:33:55.886Z,35.60
2023-01-23T03:34:55.928Z,34.99
2023-01-23T03:35:55.864Z,34.99
2023-01-23T03:36:55.850Z,34.99
2023-01-23T03:37:55.955Z,35.10
2023-01-23T03:38:55.829Z,35.19
2023-01-23T03:39:55.817Z,34.99
2023-01-23T03:40:55.823Z,34.99
2023-01-23T03:41:55.797Z,34.99
2023-01-23T03:42:55.785Z,34.99
2023-01-23T03:43:55.771Z,35.30
2023-01-23T03:44:55.769Z,35.50
2023-01-23T03:45:55.806Z,35.30
2023-01-23T03:46:55.758Z,35.39
2023-01-23T03:47:55.727Z,35.60
2023-01-23T03:48:55.716Z,34.99
2023-01-23T03:49:55.704Z,34.99
2023-01-23T03:50:55.741Z,35.19
2023-01-23T03:51:55.682Z,34.99
2023-01-23T03:52:55.675Z,34.99
2023-01-23T03:53:55.779Z,34.99
2023-01-23T03:54:55.646Z,34.99
2023-01-23T03:55:55.636Z,34.99
2023-01-23T03:56:55.626Z,34.99
2023-01-23T03:57:55.615Z,34.99
2023-01-23T03:58:55.607Z,35.60
2023-01-23T03:59:55.592Z,35.60
2023-01-23T04:00:55.616Z,35.58
2023-01-23T04:01:55.573Z,34.99
2023-01-23T04:02:55.654Z,34.89
2023-01-23T04:03:55.550Z,34.99
2023-01-23T04:04:55.540Z,35.60
2023-01-23T04:05:55.523Z,35.50
2023-01-23T04:06:55.509Z,34.99
2023-01-23T04:07:55.502Z,34.99
2023-01-23T04:08:55.488Z,35.30
2023-01-23T04:09:55.592Z,34.99
2023-01-23T04:10:55.493Z,35.39
2023-01-23T04:11:55.453Z,34.99
2023-01-23T04:12:55.443Z,35.58
2023-01-23T04:13:55.428Z,34.99
2023-01-23T04:14:55.422Z,35.28
2023-01-23T04:15:55.415Z,34.99
2023-01-23T04:16:55.434Z,35.39
2023-01-23T04:17:55.384Z,34.99
2023-01-23T04:18:55.373Z,35.58
2023-01-23T04:19:55.367Z,35.60
2023-01-23T04:20:55.349Z,35.39
2023-01-23T04:21:55.340Z,34.99
2023-01-23T04:22:55.355Z,35.58
2023-01-23T04:23:55.324Z,35.38
2023-01-23T04:24:55.305Z,35.39
2023-01-23T04:25:55.408Z,35.50
2023-01-23T04:26:55.304Z,34.99
2023-01-23T04:27:55.276Z,35.39
2023-01-23T04:28:55.268Z,34.99
2023-01-23T04:29:55.248Z,35.50
2023-01-23T04:30:55.367Z,35.39
2023-01-23T04:31:55.224Z,34.98
2023-01-23T04:32:55.215Z,35.39
2023-01-23T04:33:55.212Z,34.99
2023-01-23T04:34:55.243Z,35.50
2023-01-23T04:35:55.178Z,35.38
2023-01-23T04:36:55.178Z,35.38
2023-01-23T04:37:55.156Z,35.30
2023-01-23T04:38:55.156Z,35.39
2023-01-23T04:39:55.135Z,35.50
2023-01-23T04:40:55.126Z,34.98
2023-01-23T04:41:55.225Z,35.60
2023-01-23T04:42:55.098Z,35.50
2023-01-23T04:43:55.091Z,35.39
2023-01-23T04:44:55.076Z,35.50
2023-01-23T04:45:55.115Z,35.58
2023-01-23T04:46:55.128Z,35.38
2023-01-23T04:47:55.048Z,35.60
2023-01-23T04:48:55.041Z,35.48
2023-01-23T04:49:55.020Z,35.38
2023-01-23T04:50:55.049Z,35.50
2023-01-23T04:51:54.997Z,35.28
2023-01-23T04:52:55.001Z,35.50
2023-01-23T04:53:54.978Z,35.50
2023-01-23T04:54:54.961Z,35.58
2023-01-23T04:55:54.955Z,35.50
2023-01-23T04:56:54.940Z,35.48
2023-01-23T04:57:55.046Z,35.28
2023-01-23T04:58:54.923Z,35.39
2023-01-23T04:59:54.908Z,34.98
2023-01-23T05:00:54.991Z,35.48
2023-01-23T05:01:54.887Z,34.99
2023-01-23T05:02:54.871Z,35.28
2023-01-23T05:03:54.859Z,35.58
2023-01-23T05:04:54.856Z,35.38
2023-01-23T05:05:54.838Z,35.28
2023-01-23T05:06:54.829Z,34.99
2023-01-23T05:07:54.818Z,35.48
2023-01-23T05:08:54.801Z,35.58
2023-01-23T05:09:54.789Z,35.48
2023-01-23T05:10:54.792Z,35.50
2023-01-23T05:11:54.773Z,35.48
2023-01-23T05:12:54.763Z,34.98
2023-01-23T05:13:54.858Z,35.60
2023-01-23T05:14:54.733Z,35.28
2023-01-23T05:15:54.741Z,35.58
2023-01-23T05:16:54.739Z,35.60
2023-01-23T05:17:54.699Z,35.70
2023-01-23T05:18:54.689Z,35.58
2023-01-23T05:19:54.677Z,34.98
2023-01-23T05:20:54.667Z,35.28
2023-01-23T05:21:54.653Z,35.39
2023-01-23T05:22:54.652Z,35.50
2023-01-23T05:23:54.632Z,34.99
2023-01-23T05:24:54.665Z,35.70
2023-01-23T05:25:54.607Z,35.70
2023-01-23T05:26:54.614Z,35.28
2023-01-23T05:27:54.590Z,35.18
2023-01-23T05:28:54.591Z,35.48
2023-01-23T05:29:54.584Z,35.60
2023-01-23T05:30:54.639Z,35.58
2023-01-23T05:31:54.542Z,35.38
2023-01-23T05:32:54.531Z,35.68
2023-01-23T05:33:54.530Z,35.68
2023-01-23T05:34:54.526Z,35.58
2023-01-23T05:35:54.509Z,35.48
2023-01-23T05:36:54.490Z,35.68
2023-01-23T05:37:54.472Z,35.50
2023-01-23T05:38:54.459Z,35.50
2023-01-23T05:39:54.449Z,36.18
2023-01-23T05:40:54.458Z,35.78
2023-01-23T05:41:54.427Z,35.78
2023-01-23T05:42:54.417Z,35.80
2023-01-23T05:43:54.402Z,36.08
2023-01-23T05:44:54.396Z,35.68
2023-01-23T05:45:54.545Z,35.58
2023-01-23T05:46:54.378Z,35.68
2023-01-23T05:47:54.362Z,36.18
2023-01-23T05:48:54.357Z,35.48
2023-01-23T05:49:54.337Z,35.50
2023-01-23T05:50:54.357Z,35.98
2023-01-23T05:51:54.315Z,35.80
2023-01-23T05:52:54.333Z,35.98
2023-01-23T05:53:54.288Z,35.50
2023-01-23T05:54:54.277Z,35.98
2023-01-23T05:55:54.267Z,35.48
2023-01-23T05:56:54.256Z,35.58
2023-01-23T05:57:54.265Z,35.48
2023-01-23T05:58:54.253Z,35.80
2023-01-23T05:59:54.221Z,35.78
2023-01-23T06:00:54.215Z,35.38
2023-01-23T06:01:54.313Z,35.48
2023-01-23T06:02:54.241Z,35.78
2023-01-23T06:03:54.238Z,35.50
2023-01-23T06:04:55.790Z,35.48
2023-01-23T06:05:54.153Z,35.68
2023-01-23T06:06:54.145Z,35.38
2023-01-23T06:07:54.128Z,35.68
2023-01-23T06:08:54.117Z,35.38
2023-01-23T06:09:54.120Z,35.48
2023-01-23T06:10:54.103Z,35.78
2023-01-23T06:11:54.093Z,35.48
2023-01-23T06:12:54.074Z,35.48
2023-01-23T06:13:54.061Z,35.58
2023-01-23T06:14:54.058Z,35.68
2023-01-23T06:15:54.062Z,35.70
2023-01-23T06:16:54.039Z,35.70
2023-01-23T06:17:54.184Z,35.68
2023-01-23T06:18:54.009Z,35.68
2023-01-23T06:19:53.992Z,35.48
2023-01-23T06:20:53.980Z,35.68
2023-01-23T06:21:53.995Z,35.38
2023-01-23T06:22:53.965Z,35.68
2023-01-23T06:23:53.963Z,35.48
2023-01-23T06:24:53.935Z,35.38
2023-01-23T06:25:53.928Z,35.48
2023-01-23T06:26:53.912Z,35.08
2023-01-23T06:27:55.073Z,35.70
2023-01-23T06:28:53.894Z,35.48
2023-01-23T06:29:53.879Z,35.30
2023-01-23T06:30:53.974Z,35.28
2023-01-23T06:31:53.957Z,35.38
2023-01-23T06:32:53.848Z,35.08
2023-01-23T06:33:53.953Z,35.48
2023-01-23T06:34:53.833Z,35.68
2023-01-23T06:35:53.811Z,35.30
2023-01-23T06:36:53.797Z,34.98
2023-01-23T06:37:53.791Z,35.18
2023-01-23T06:38:53.774Z,35.18
2023-01-23T06:39:53.763Z,35.48
2023-01-23T06:40:53.760Z,35.08
2023-01-23T06:41:53.747Z,35.08
2023-01-23T06:42:53.731Z,35.18
2023-01-23T06:43:53.727Z,35.38
2023-01-23T06:44:53.708Z,34.88
2023-01-23T06:45:53.714Z,35.18
2023-01-23T06:46:53.712Z,35.08
2023-01-23T06:47:53.674Z,35.08
2023-01-23T06:48:53.663Z,35.08
2023-01-23T06:49:53.673Z,35.18
2023-01-23T06:50:53.698Z,35.08
2023-01-23T06:51:53.630Z,35.28
2023-01-23T06:52:53.633Z,35.08
2023-01-23T06:53:53.609Z,35.08
2023-01-23T06:54:53.593Z,35.08
2023-01-23T06:55:53.621Z,35.38
2023-01-23T06:56:53.573Z,34.88
2023-01-23T06:57:53.564Z,35.18
2023-01-23T06:58:53.562Z,34.99
2023-01-23T06:59:53.539Z,35.08
2023-01-23T07:00:53.525Z,35.08
2023-01-23T07:01:53.578Z,35.38
2023-01-23T07:02:53.574Z,35.08
2023-01-23T07:03:53.497Z,34.88
2023-01-23T07:04:53.501Z,35.08
2023-01-23T07:05:53.582Z,35.08
2023-01-23T07:06:53.457Z,34.88
2023-01-23T07:07:53.452Z,34.88
2023-01-23T07:08:53.435Z,35.38
2023-01-23T07:09:53.426Z,34.88
2023-01-23T07:10:53.415Z,35.10
2023-01-23T07:11:53.403Z,35.08
2023-01-23T07:12:53.390Z,35.08
2023-01-23T07:13:53.378Z,35.18
2023-01-23T07:14:53.380Z,34.88
2023-01-23T07:15:53.384Z,35.08
2023-01-23T07:16:53.348Z,35.28
2023-01-23T07:17:53.331Z,35.08
2023-01-23T07:18:53.319Z,35.08
2023-01-23T07:19:53.307Z,34.88
2023-01-23T07:20:53.295Z,35.18
2023-01-23T07:21:53.407Z,35.08
2023-01-23T07:22:53.280Z,34.98
2023-01-23T07:23:53.265Z,34.88
2023-01-23T07:24:53.254Z,35.38
2023-01-23T07:25:53.238Z,35.08
2023-01-23T07:26:53.228Z,34.98
2023-01-23T07:27:53.217Z,34.89
2023-01-23T07:28:53.244Z,34.98
2023-01-23T07:29:53.194Z,35.68
2023-01-23T07:30:53.331Z,35.08
2023-01-23T07:31:53.265Z,34.88
2023-01-23T07:32:53.164Z,34.98
2023-01-23T07:33:53.147Z,35.08
2023-01-23T07:34:53.175Z,34.88
2023-01-23T07:35:53.125Z,34.88
2023-01-23T07:36:53.116Z,35.08
2023-01-23T07:37:53.218Z,35.28
2023-01-23T07:38:53.097Z,35.08
2023-01-23T07:39:53.080Z,34.88
2023-01-23T07:40:53.082Z,34.98
2023-01-23T07:41:53.057Z,34.88
2023-01-23T07:42:53.050Z,34.88
2023-01-23T07:43:53.036Z,35.08
2023-01-23T07:44:53.025Z,35.08
2023-01-23T07:45:53.014Z,35.08
2023-01-23T07:46:53.055Z,34.88
2023-01-23T07:47:52.989Z,35.08
2023-01-23T07:48:52.987Z,35.08
2023-01-23T07:49:52.979Z,34.88
2023-01-23T07:50:53.074Z,35.08
2023-01-23T07:51:52.947Z,34.88
2023-01-23T07:52:53.507Z,34.88
2023-01-23T07:53:53.040Z,34.88
2023-01-23T07:54:52.909Z,34.88
2023-01-23T07:55:52.896Z,35.08
2023-01-23T07:56:52.889Z,34.88
2023-01-23T07:57:52.881Z,34.88
2023-01-23T07:58:52.871Z,34.88
2023-01-23T07:59:52.854Z,35.08
2023-01-23T08:00:52.900Z,35.08
2023-01-23T08:01:52.828Z,35.08
2023-01-23T08:02:52.818Z,35.08
2023-01-23T08:03:52.879Z,35.08
2023-01-23T08:04:52.799Z,34.88
2023-01-23T08:05:52.783Z,35.08
2023-01-23T08:06:52.771Z,35.38
2023-01-23T08:08:07.397Z,35.08
2023-01-23T08:08:53.745Z,34.88
2023-01-23T08:09:52.863Z,35.08
2023-01-23T08:10:52.733Z,34.88
2023-01-23T08:11:52.717Z,34.98
2023-01-23T08:12:52.703Z,35.08
2023-01-23T08:13:52.694Z,34.88
2023-01-23T08:14:52.687Z,35.08
2023-01-23T08:15:52.671Z,34.98
2023-01-23T08:16:52.666Z,34.98
2023-01-23T08:17:52.647Z,34.98
2023-01-23T08:18:52.634Z,34.98
2023-01-23T08:19:52.631Z,35.08
2023-01-23T08:20:52.611Z,35.08
2023-01-23T08:21:52.602Z,35.08
2023-01-23T08:22:52.599Z,35.18
2023-01-23T08:23:52.577Z,35.08
2023-01-23T08:24:52.565Z,34.88
2023-01-23T08:25:52.667Z,35.38
2023-01-23T08:26:52.545Z,34.88
2023-01-23T08:27:52.547Z,35.08
2023-01-23T08:28:52.531Z,35.08
2023-01-23T08:29:52.518Z,35.08
2023-01-23T08:30:52.537Z,35.08
2023-01-23T08:31:52.524Z,34.88
2023-01-23T08:32:52.491Z,35.08
2023-01-23T08:33:52.466Z,35.08
2023-01-23T08:34:52.464Z,35.18
2023-01-23T08:35:52.441Z,34.98
2023-01-23T08:36:52.462Z,35.38
2023-01-23T08:37:52.426Z,35.08
2023-01-23T08:38:52.410Z,35.08
2023-01-23T08:39:52.398Z,34.98
2023-01-23T08:40:52.401Z,35.08
2023-01-23T08:41:52.496Z,34.98
2023-01-23T08:42:52.359Z,34.88
2023-01-23T08:43:52.356Z,34.98
2023-01-23T08:44:52.338Z,35.48
2023-01-23T08:45:52.364Z,35.08
2023-01-23T08:46:52.333Z,34.88
2023-01-23T08:47:52.302Z,34.88
2023-01-23T08:48:52.294Z,35.28
2023-01-23T08:49:52.282Z,34.98
2023-01-23T08:50:52.328Z,35.08
2023-01-23T08:51:52.279Z,35.08
2023-01-23T08:52:52.419Z,35.38
2023-01-23T08:53:52.239Z,34.98
2023-01-23T08:54:52.222Z,34.88
2023-01-23T08:55:52.216Z,35.08
2023-01-23T08:56:52.201Z,35.48
2023-01-23T08:57:52.208Z,35.08
2023-01-23T08:58:52.186Z,35.46
2023-01-23T08:59:52.168Z,35.38
2023-01-23T09:00:52.164Z,35.36
2023-01-23T09:01:52.216Z,35.36
2023-01-23T09:02:52.132Z,35.48
2023-01-23T09:03:52.126Z,34.96
2023-01-23T09:04:52.118Z,35.38
2023-01-23T09:05:52.107Z,35.08
2023-01-23T09:06:52.090Z,35.46
2023-01-23T09:07:52.080Z,35.48
2023-01-23T09:08:52.092Z,35.58
2023-01-23T09:09:52.055Z,35.38
2023-01-23T09:10:52.058Z,35.38
2023-01-23T09:11:52.048Z,35.08
2023-01-23T09:12:52.017Z,35.08
2023-01-23T09:13:53.963Z,34.88
2023-01-23T09:14:51.998Z,35.08
2023-01-23T09:15:51.986Z,35.36
2023-01-23T09:16:52.121Z,35.48
2023-01-23T09:17:51.962Z,34.88
2023-01-23T09:18:51.972Z,35.06
2023-01-23T09:19:51.937Z,35.38
2023-01-23T09:20:51.928Z,35.36
2023-01-23T09:21:51.919Z,35.06
2023-01-23T09:22:51.911Z,35.06
2023-01-23T09:23:51.893Z,35.06
2023-01-23T09:24:51.880Z,34.96
2023-01-23T09:25:51.869Z,34.88
2023-01-23T09:26:51.860Z,34.96
2023-01-23T09:27:51.854Z,35.08
2023-01-23T09:28:51.845Z,35.06
2023-01-23T09:29:51.939Z,35.06
2023-01-23T09:30:51.818Z,34.96
2023-01-23T09:31:51.877Z,35.06
2023-01-23T09:32:51.790Z,34.98
2023-01-23T09:33:51.782Z,35.38
2023-01-23T09:34:51.774Z,35.08
2023-01-23T09:35:51.755Z,34.86
2023-01-23T09:36:51.745Z,34.96
2023-01-23T09:37:58.461Z,34.96
2023-01-23T09:38:52.720Z,35.16
2023-01-23T09:39:51.709Z,35.06
2023-01-23T09:40:51.704Z,35.08
2023-01-23T09:41:51.687Z,34.96
2023-01-23T09:42:51.691Z,34.96
2023-01-23T09:43:51.667Z,34.88
2023-01-23T09:44:51.659Z,34.86
2023-01-23T09:45:51.771Z,35.06
2023-01-23T09:46:51.634Z,34.86
2023-01-23T09:47:53.356Z,34.96
2023-01-23T09:48:51.610Z,34.86
2023-01-23T09:49:51.596Z,35.06
2023-01-23T09:50:51.617Z,34.96
2023-01-23T09:51:51.574Z,35.16
2023-01-23T09:52:51.567Z,35.08
2023-01-23T09:53:51.553Z,34.96
2023-01-23T09:54:51.545Z,34.96
2023-01-23T09:55:51.527Z,35.46
2023-01-23T09:56:51.543Z,35.46
2023-01-23T09:57:51.504Z,34.96
2023-01-23T09:58:51.517Z,35.46
2023-01-23T10:00:00.344Z,35.06
2023-01-23T10:00:52.495Z,35.06
2023-01-23T10:01:51.638Z,34.96
2023-01-23T10:02:51.566Z,35.06
2023-01-23T10:03:51.435Z,35.48
2023-01-23T10:04:51.430Z,35.08
2023-01-23T10:05:51.415Z,35.16
2023-01-23T10:06:51.400Z,34.96
2023-01-23T10:07:51.401Z,35.16
2023-01-23T10:08:51.378Z,35.06
2023-01-23T10:09:51.372Z,35.16
2023-01-23T10:10:51.362Z,35.16
2023-01-23T10:11:51.344Z,35.46
2023-01-23T10:12:51.339Z,35.08
2023-01-23T10:13:51.324Z,34.98
2023-01-23T10:14:51.310Z,34.96
2023-01-23T10:15:53.654Z,35.16
2023-01-23T10:16:51.418Z,35.48
2023-01-23T10:17:51.387Z,35.88
2023-01-23T10:18:51.264Z,36.08
2023-01-23T10:19:51.251Z,35.57
2023-01-23T10:20:51.246Z,36.27
2023-01-23T10:21:51.239Z,35.68
2023-01-23T10:22:51.228Z,35.26
2023-01-23T10:23:51.209Z,35.86
2023-01-23T10:24:51.198Z,35.77
2023-01-23T10:25:51.186Z,35.97
2023-01-23T10:26:51.174Z,35.46
2023-01-23T10:27:51.162Z,36.16
2023-01-23T10:28:51.158Z,35.46
2023-01-23T10:29:51.165Z,35.77
2023-01-23T10:30:51.247Z,35.86
2023-01-23T10:31:51.208Z,35.26
2023-01-23T10:32:51.118Z,35.57
2023-01-23T10:33:51.211Z,35.55
2023-01-23T10:34:51.089Z,35.44
2023-01-23T10:35:51.068Z,35.44
2023-01-23T10:36:54.752Z,35.35
2023-01-23T10:37:51.050Z,35.25
2023-01-23T10:38:51.053Z,35.55
2023-01-23T10:39:51.037Z,35.75
2023-01-23T10:40:51.020Z,35.55
2023-01-23T10:41:54.344Z,35.44
2023-01-23T10:42:51.992Z,35.75
2023-01-23T10:43:50.990Z,35.44
2023-01-23T10:44:50.977Z,35.43
2023-01-23T10:45:50.966Z,35.64
2023-01-23T10:46:53.821Z,35.23
2023-01-23T10:47:55.072Z,35.53
2023-01-23T10:48:50.937Z,35.53
2023-01-23T10:49:51.034Z,35.43
2023-01-23T10:50:50.925Z,35.63
2023-01-23T10:51:50.892Z,35.53
2023-01-23T10:52:50.881Z,35.23
2023-01-23T10:53:50.864Z,35.33
2023-01-23T10:54:50.855Z,35.53
2023-01-23T10:55:50.849Z,35.63
2023-01-23T10:56:50.859Z,35.33
2023-01-23T10:57:50.819Z,35.23
2023-01-23T10:58:50.812Z,35.53
2023-01-23T10:59:50.808Z,35.43
2023-01-23T11:00:50.791Z,35.53
2023-01-23T11:01:57.283Z,35.53
2023-01-23T11:02:51.795Z,35.63
2023-01-23T11:03:50.749Z,35.43
2023-01-23T11:04:50.790Z,35.33
2023-01-23T11:05:53.122Z,35.23
2023-01-23T11:06:50.715Z,35.33
2023-01-23T11:07:50.705Z,35.33
2023-01-23T11:08:50.696Z,35.51
2023-01-23T11:09:50.683Z,35.53
2023-01-23T11:10:50.677Z,35.53
2023-01-23T11:11:50.662Z,36.11
2023-01-23T11:12:50.654Z,36.11
2023-01-23T11:13:50.639Z,35.51
2023-01-23T11:14:50.628Z,35.43
2023-01-23T11:15:50.645Z,35.33
2023-01-23T11:16:50.609Z,35.43
2023-01-23T11:17:50.591Z,35.33
2023-01-23T11:18:50.579Z,35.53
2023-01-23T11:19:50.571Z,35.51
2023-01-23T11:20:50.587Z,35.41
2023-01-23T11:21:50.667Z,35.51
2023-01-23T11:22:50.538Z,35.51
2023-01-23T11:23:50.522Z,35.31
2023-01-23T11:24:50.519Z,35.31
2023-01-23T11:25:50.501Z,36.11
2023-01-23T11:26:50.487Z,35.41
2023-01-23T11:27:50.482Z,35.61
2023-01-23T11:28:50.471Z,35.31
2023-01-23T11:29:50.454Z,35.61
2023-01-23T11:30:54.238Z,35.41
2023-01-23T11:31:51.528Z,35.71
2023-01-23T11:32:50.421Z,35.71
2023-01-23T11:33:50.410Z,35.51
2023-01-23T11:34:50.409Z,35.61
2023-01-23T11:35:50.385Z,35.71
2023-01-23T11:36:50.373Z,36.02
2023-01-23T11:37:50.475Z,35.71
2023-01-23T11:38:52.728Z,35.41
2023-01-23T11:39:50.342Z,35.82
2023-01-23T11:40:50.338Z,35.91
2023-01-23T11:41:50.327Z,35.61
2023-01-23T11:42:50.303Z,35.41
2023-01-23T11:43:50.297Z,35.51
2023-01-23T11:44:50.283Z,35.91
2023-01-23T11:45:50.302Z,35.61
2023-01-23T11:46:50.266Z,35.51
2023-01-23T11:47:50.258Z,35.91
2023-01-23T11:48:50.238Z,35.82
2023-01-23T11:49:51.391Z,35.51
2023-01-23T11:50:55.303Z,35.31
2023-01-23T11:51:51.207Z,35.71
2023-01-23T11:52:50.193Z,35.91
2023-01-23T11:53:50.325Z,35.71
2023-01-23T11:54:50.199Z,35.61
2023-01-23T11:55:50.443Z,35.39
2023-01-23T11:56:50.145Z,35.61
2023-01-23T11:57:50.154Z,35.21
2023-01-23T11:58:50.600Z,35.01
2023-01-23T11:59:50.112Z,35.30
2023-01-23T12:00:50.102Z,34.80
2023-01-23T12:02:02.557Z,35.39
2023-01-23T12:02:51.163Z,35.69
2023-01-23T12:03:50.201Z,35.39
2023-01-23T12:04:50.143Z,35.50
2023-01-23T12:05:50.046Z,35.39
2023-01-23T12:06:50.036Z,35.30
2023-01-23T12:07:50.019Z,35.60
2023-01-23T12:08:50.044Z,35.50
2023-01-23T12:09:50.111Z,35.60
2023-01-23T12:10:49.986Z,35.39
2023-01-23T12:11:49.976Z,35.69
2023-01-23T12:12:49.962Z,36.10
2023-01-23T12:13:49.951Z,36.10
2023-01-23T12:14:49.975Z,35.69
2023-01-23T12:15:50.017Z,35.50
2023-01-23T12:16:49.921Z,35.50
2023-01-23T12:17:49.906Z,35.39
2023-01-23T12:18:49.901Z,35.19
2023-01-23T12:19:49.885Z,35.50
2023-01-23T12:20:49.877Z,35.60
2023-01-23T12:21:49.862Z,35.50
2023-01-23T12:22:49.851Z,35.50
2023-01-23T12:23:49.848Z,35.39
2023-01-23T12:24:49.911Z,35.30
2023-01-23T12:25:49.948Z,35.39
2023-01-23T12:26:49.813Z,35.39
2023-01-23T12:27:49.796Z,35.39
2023-01-23T12:28:49.783Z,35.48
2023-01-23T12:29:49.768Z,35.48
2023-01-23T12:30:49.758Z,35.48
2023-01-23T12:31:49.893Z,35.48
2023-01-23T12:32:49.745Z,35.28
2023-01-23T12:33:49.733Z,35.28
2023-01-23T12:34:49.716Z,35.28
2023-01-23T12:35:49.700Z,35.58
2023-01-23T12:37:08.252Z,35.78
2023-01-23T12:37:50.695Z,35.68
2023-01-23T12:38:49.665Z,35.68
2023-01-23T12:39:49.662Z,35.68
2023-01-23T12:40:49.655Z,36.18
2023-01-23T12:41:49.749Z,35.38
2023-01-23T12:42:49.632Z,35.18
2023-01-23T12:43:49.613Z,35.48
2023-01-23T12:44:49.656Z,35.18
2023-01-23T12:45:49.585Z,35.38
2023-01-23T12:46:49.696Z,35.38
2023-01-23T12:47:49.576Z,35.38
2023-01-23T12:48:49.557Z,35.58
2023-01-23T12:49:49.552Z,35.68
2023-01-23T12:50:50.092Z,36.48
2023-01-23T12:51:49.525Z,35.18
2023-01-23T12:52:49.519Z,36.08